createdAt,value
2023-02-18T00:01:36.500Z,98999.50
2023-02-18T00:04:05.100Z,99001.50
2023-02-18T00:06:36.095Z,99010.06
2023-02-18T00:09:04.991Z,99005.34
2023-02-18T00:11:34.823Z,98999.97
2023-02-18T00:14:04.592Z,98996.53
2023-02-18T00:16:33.039Z,98999.19
2023-02-18T00:19:05.880Z,99004.97
2023-02-18T00:21:34.821Z,99011.63
2023-02-18T00:24:03.035Z,99007.50
2023-02-18T00:26:31.753Z,99007.56
2023-02-18T00:29:00.129Z,99001.84
2023-02-18T00:31:31.392Z,99001.84
2023-02-18T00:34:00.669Z,99013.09
2023-02-18T00:36:30.128Z,99013.94
2023-02-18T00:39:01.552Z,99002.91
2023-02-18T00:41:31.149Z,98998.63
2023-02-18T00:44:00.030Z,99006.03
2023-02-18T00:46:30.205Z,99007.47
2023-02-18T00:48:59.132Z,99006.06
2023-02-18T00:51:28.422Z,99005.69
2023-02-18T00:53:57.521Z,99008.06
2023-02-18T00:56:25.822Z,99011.81
2023-02-18T00:58:54.979Z,99010.94
2023-02-18T01:01:24.667Z,99017.22
2023-02-18T01:03:52.922Z,99014.63
2023-02-18T01:06:22.186Z,99005.63
2023-02-18T01:08:51.594Z,99008.13
2023-02-18T01:11:20.223Z,99007.47
2023-02-18T01:13:48.520Z,99007.97
2023-02-18T01:16:17.902Z,99002.03
2023-02-18T01:18:45.798Z,99010.56
2023-02-18T01:21:12.848Z,99010.34
2023-02-18T01:23:42.345Z,99007.13
2023-02-18T01:26:11.585Z,99006.13
2023-02-18T01:28:42.490Z,99002.88
2023-02-18T01:31:13.055Z,99007.13
2023-02-18T01:33:42.054Z,99004.75
2023-02-18T01:36:11.780Z,99009.22
2023-02-18T01:38:40.603Z,99014.09
2023-02-18T01:41:08.186Z,99004.69
2023-02-18T01:43:36.782Z,99005.03
2023-02-18T01:46:05.665Z,98999.38
2023-02-18T01:48:34.380Z,98999.22
2023-02-18T01:51:10.493Z,98998.81
2023-02-18T01:53:52.724Z,98994.09
2023-02-18T01:56:26.515Z,98996.72
2023-02-18T01:58:59.277Z,98995.50
2023-02-18T02:01:28.755Z,99000.97
2023-02-18T02:03:58.090Z,98997.06
2023-02-18T02:06:26.629Z,98991.19
2023-02-18T02:08:59.281Z,98990.19
2023-02-18T02:11:53.812Z,98989.78
2023-02-18T02:14:56.861Z,98981.97
2023-02-18T02:17:55.678Z,98986.03
2023-02-18T02:20:39.000Z,98977.53
2023-02-18T02:23:42.648Z,98975.03
2023-02-18T02:26:27.279Z,98977.84
2023-02-18T02:29:25.388Z,98969.72
2023-02-18T02:32:25.260Z,98971.34
2023-02-18T02:35:11.753Z,98970.34
2023-02-18T02:37:56.634Z,98964.03
2023-02-18T02:40:46.785Z,98967.50
2023-02-18T02:43:22.978Z,98964.03
2023-02-18T02:46:09.588Z,98965.22
2023-02-18T02:48:37.491Z,98968.47
2023-02-18T02:51:15.526Z,98971.13
2023-02-18T02:53:44.269Z,98970.75
2023-02-18T02:56:15.824Z,98964.53
2023-02-18T02:58:45.084Z,98965.06
2023-02-18T03:01:39.168Z,98968.31
2023-02-18T03:04:08.755Z,98970.44
2023-02-18T03:06:50.509Z,98971.47
2023-02-18T03:09:24.497Z,98963.22
2023-02-18T03:12:12.718Z,98963.06
2023-02-18T03:14:54.889Z,98951.34
2023-02-18T03:17:26.386Z,98959.97
2023-02-18T03:20:02.799Z,98972.53
2023-02-18T03:22:36.346Z,98975.59
2023-02-18T03:25:06.594Z,98975.59
2023-02-18T03:27:59.589Z,98966.03
2023-02-18T03:30:33.093Z,98959.25
2023-02-18T03:33:06.527Z,98962.13
2023-02-18T03:35:37.766Z,98959.25
2023-02-18T03:38:14.146Z,98958.88
2023-02-18T03:40:42.764Z,98948.41
2023-02-18T03:43:10.104Z,98957.19
2023-02-18T03:45:37.362Z,98957.03
2023-02-18T03:48:07.908Z,98947.31
2023-02-18T03:50:36.071Z,98954.34
2023-02-18T03:53:02.886Z,98947.22
2023-02-18T03:55:32.269Z,98942.91
2023-02-18T03:58:00.781Z,98938.00
2023-02-18T04:00:29.921Z,98928.69
2023-02-18T04:02:57.803Z,98945.47
2023-02-18T04:05:25.772Z,98930.59
2023-02-18T04:07:55.057Z,98930.34
2023-02-18T04:10:24.277Z,98929.34
2023-02-18T04:12:53.241Z,98941.97
2023-02-18T04:15:21.790Z,98946.09
2023-02-18T04:17:50.598Z,98945.88
2023-02-18T04:20:18.700Z,98951.69
2023-02-18T04:22:46.498Z,98939.47
2023-02-18T04:25:15.122Z,98950.66
2023-02-18T04:27:44.755Z,98948.47
2023-02-18T04:30:12.252Z,98950.28
2023-02-18T04:32:39.318Z,98951.56
2023-02-18T04:35:07.701Z,98970.13
2023-02-18T04:37:35.991Z,98955.66
2023-02-18T04:40:04.624Z,98967.47
2023-02-18T04:42:32.542Z,98962.00
2023-02-18T04:45:01.774Z,98967.50
2023-02-18T04:47:31.839Z,98963.88
2023-02-18T04:50:01.878Z,98964.78
2023-02-18T04:52:30.488Z,98964.66
2023-02-18T04:54:59.079Z,98958.53
2023-02-18T04:57:28.380Z,98963.09
2023-02-18T04:59:56.902Z,98962.91
2023-02-18T05:02:25.048Z,98976.66
2023-02-18T05:04:54.280Z,98973.34
2023-02-18T05:07:23.301Z,98963.34
2023-02-18T05:09:51.509Z,98962.97
2023-02-18T05:12:18.815Z,98970.09
2023-02-18T05:14:46.055Z,98969.56
2023-02-18T05:17:13.784Z,98966.13
2023-02-18T05:19:42.371Z,98972.88
2023-02-18T05:22:11.524Z,98971.47
2023-02-18T05:24:40.491Z,98976.19
2023-02-18T05:27:09.671Z,98976.34
2023-02-18T05:29:37.074Z,98977.16
2023-02-18T05:32:04.112Z,98969.44
2023-02-18T05:34:32.449Z,98966.38
2023-02-18T05:37:02.050Z,98976.41
2023-02-18T05:39:30.946Z,98980.06
2023-02-18T05:42:01.069Z,98977.81
2023-02-18T05:44:32.983Z,98979.19
2023-02-18T05:47:09.895Z,98989.44
2023-02-18T05:49:40.920Z,98986.59
2023-02-18T05:52:10.258Z,98981.72
2023-02-18T05:54:38.345Z,98980.06
2023-02-18T05:57:08.459Z,98986.41
2023-02-18T05:59:35.345Z,98990.50
2023-02-18T06:02:04.617Z,98990.69
2023-02-18T06:04:34.465Z,98988.00
2023-02-18T06:07:03.460Z,98987.63
2023-02-18T06:09:32.020Z,98985.53
2023-02-18T06:11:59.787Z,98985.94
2023-02-18T06:14:29.246Z,98993.72
2023-02-18T06:16:58.115Z,98993.56
2023-02-18T06:19:25.775Z,98990.50
2023-02-18T06:21:54.636Z,99000.06
2023-02-18T06:24:29.481Z,99001.13
2023-02-18T06:26:59.521Z,98998.31
2023-02-18T06:29:27.213Z,99013.38
2023-02-18T06:31:55.985Z,99007.09
2023-02-18T06:34:25.649Z,98999.56
2023-02-18T06:36:54.223Z,99002.03
2023-02-18T06:39:23.340Z,98995.94
2023-02-18T06:41:50.197Z,99006.13
2023-02-18T06:44:17.865Z,98999.00
2023-02-18T06:46:47.613Z,98996.78
2023-02-18T06:49:16.256Z,99000.22
2023-02-18T06:51:45.833Z,98993.94
2023-02-18T06:54:13.309Z,98992.91
2023-02-18T06:56:42.602Z,99001.25
2023-02-18T06:59:10.464Z,99000.66
2023-02-18T07:01:38.247Z,99003.91
2023-02-18T07:04:06.970Z,99000.66
2023-02-18T07:06:35.809Z,98994.75
2023-02-18T07:09:03.979Z,99005.16
2023-02-18T07:11:32.569Z,98994.34
2023-02-18T07:14:03.603Z,98999.47
2023-02-18T07:16:31.893Z,98996.59
2023-02-18T07:18:59.315Z,98988.25
2023-02-18T07:21:28.229Z,98998.81
2023-02-18T07:23:56.850Z,98998.84
2023-02-18T07:26:24.526Z,99002.88
2023-02-18T07:28:51.630Z,98997.81
2023-02-18T07:31:20.272Z,99001.69
2023-02-18T07:33:48.976Z,99000.25
2023-02-18T07:36:19.872Z,98999.66
2023-02-18T07:38:48.551Z,99006.78
2023-02-18T07:41:20.656Z,99006.56
2023-02-18T07:43:49.419Z,99009.41
2023-02-18T07:46:19.557Z,99009.41
2023-02-18T07:48:48.952Z,99014.72
2023-02-18T07:51:16.556Z,99025.72
2023-02-18T07:53:47.045Z,99011.66
2023-02-18T07:56:15.657Z,99010.44
2023-02-18T07:58:45.701Z,99015.09
2023-02-18T08:01:15.237Z,99010.59
2023-02-18T08:03:45.495Z,99014.69
2023-02-18T08:06:25.412Z,99014.09
2023-02-18T08:08:54.324Z,99009.59
2023-02-18T08:11:22.166Z,99011.00
2023-02-18T08:13:50.881Z,99023.03
2023-02-18T08:16:22.632Z,99019.78
2023-02-18T08:18:53.433Z,99015.47
2023-02-18T08:21:23.192Z,99019.75
2023-02-18T08:23:52.184Z,99011.78
2023-02-18T08:26:22.245Z,99014.22
2023-02-18T08:28:51.094Z,99014.84
2023-02-18T08:31:26.194Z,99009.72
2023-02-18T08:33:57.106Z,99012.56
2023-02-18T08:36:24.926Z,99016.06
2023-02-18T08:38:53.637Z,99008.91
2023-02-18T08:41:23.228Z,99007.22
2023-02-18T08:43:51.761Z,98999.28
2023-02-18T08:46:25.432Z,98988.06
2023-02-18T08:49:03.131Z,98994.59
2023-02-18T08:51:32.143Z,98987.59
2023-02-18T08:54:00.126Z,98986.13
2023-02-18T08:56:30.028Z,98989.41
2023-02-18T08:59:00.664Z,98992.00
2023-02-18T09:01:29.508Z,98979.34
2023-02-18T09:04:00.059Z,98977.69
2023-02-18T09:06:28.784Z,98975.09
2023-02-18T09:08:57.198Z,98972.38
2023-02-18T09:11:24.965Z,98966.44
2023-02-18T09:13:53.076Z,98958.09
2023-02-18T09:16:21.168Z,98962.16
2023-02-18T09:18:50.130Z,98960.47
2023-02-18T09:21:21.375Z,98959.78
2023-02-18T09:23:51.814Z,98954.41
2023-02-18T09:26:24.154Z,98960.84
2023-02-18T09:28:54.948Z,98948.13
2023-02-18T09:31:25.951Z,98937.06
2023-02-18T09:33:57.070Z,98945.97
2023-02-18T09:36:26.136Z,98933.88
2023-02-18T09:38:55.859Z,98937.00
2023-02-18T09:41:22.841Z,98930.34
2023-02-18T09:43:54.492Z,98933.13
2023-02-18T09:46:30.532Z,98923.66
2023-02-18T09:49:02.532Z,98920.31
2023-02-18T09:51:31.947Z,98916.53
2023-02-18T09:54:01.105Z,98898.66
2023-02-18T09:56:32.345Z,98905.59
2023-02-18T09:59:06.543Z,98905.41
2023-02-18T10:01:39.834Z,98898.53
2023-02-18T10:04:16.053Z,98900.91
2023-02-18T10:06:46.335Z,98894.25
2023-02-18T10:09:21.991Z,98892.16
2023-02-18T10:11:56.119Z,98887.66
2023-02-18T10:14:26.937Z,98896.09
2023-02-18T10:16:55.775Z,98875.31
2023-02-18T10:19:41.196Z,98883.63
2023-02-18T10:22:14.691Z,98864.13
2023-02-18T10:25:03.947Z,98853.34
2023-02-18T10:27:35.590Z,98857.03
2023-02-18T10:30:25.585Z,98864.44
2023-02-18T10:33:03.064Z,98861.50
2023-02-18T10:35:33.973Z,98846.53
2023-02-18T10:38:09.926Z,98831.22
2023-02-18T10:40:54.858Z,98830.19
2023-02-18T10:43:53.848Z,98825.06
2023-02-18T10:46:38.784Z,98820.13
2023-02-18T10:49:22.419Z,98813.22
2023-02-18T10:51:53.655Z,98803.91
2023-02-18T10:54:28.155Z,98794.50
2023-02-18T10:57:00.281Z,98783.81
2023-02-18T10:59:34.859Z,98774.84
2023-02-18T11:02:13.501Z,98767.97
2023-02-18T11:04:46.179Z,98776.16
2023-02-18T11:07:19.560Z,98785.03
2023-02-18T11:09:51.767Z,98784.47
2023-02-18T11:12:40.195Z,98785.03
2023-02-18T11:15:18.288Z,98781.38
2023-02-18T11:17:49.133Z,98774.13
2023-02-18T11:20:33.913Z,98778.97
2023-02-18T11:23:21.245Z,98772.97
2023-02-18T11:26:06.279Z,98766.94
2023-02-18T11:28:42.239Z,98759.50
2023-02-18T11:31:19.661Z,98755.53
2023-02-18T11:34:01.037Z,98759.97
2023-02-18T11:36:33.181Z,98751.66
2023-02-18T11:39:06.949Z,98750.69
2023-02-18T11:41:39.117Z,98743.59
2023-02-18T11:44:23.162Z,98740.94
2023-02-18T11:47:07.432Z,98729.03
2023-02-18T11:49:36.305Z,98725.31
2023-02-18T11:52:06.466Z,98725.13
2023-02-18T11:54:36.773Z,98712.84
2023-02-18T11:57:11.185Z,98709.22
2023-02-18T11:59:41.944Z,98699.59
2023-02-18T12:02:10.999Z,98702.50
2023-02-18T12:04:58.774Z,98709.78
2023-02-18T12:07:34.859Z,98702.41
2023-02-18T12:10:15.541Z,98694.22
2023-02-18T12:13:00.231Z,98679.41
2023-02-18T12:15:42.993Z,98673.94
2023-02-18T12:18:42.912Z,98669.19
2023-02-18T12:21:46.231Z,98659.03
2023-02-18T12:24:35.567Z,98662.75
2023-02-18T12:27:18.551Z,98652.09
2023-02-18T12:29:55.606Z,98650.25
2023-02-18T12:32:40.628Z,98656.63
2023-02-18T12:35:11.136Z,98647.44
2023-02-18T12:38:07.358Z,98640.81
2023-02-18T12:40:51.307Z,98646.16
2023-02-18T12:43:50.675Z,98642.38
2023-02-18T12:46:48.225Z,98619.59
2023-02-18T12:49:26.761Z,98617.44
2023-02-18T12:52:11.904Z,98619.28
2023-02-18T12:54:57.869Z,98615.56
2023-02-18T12:57:48.320Z,98619.53
2023-02-18T13:00:32.228Z,98617.72
2023-02-18T13:03:20.408Z,98602.53
2023-02-18T13:06:14.690Z,98592.47
2023-02-18T13:08:58.513Z,98597.66
2023-02-18T13:11:48.038Z,98577.97
2023-02-18T13:14:21.635Z,98573.78
2023-02-18T13:16:55.514Z,98572.81
2023-02-18T13:19:28.815Z,98571.53
2023-02-18T13:22:01.841Z,98559.34
2023-02-18T13:24:39.936Z,98559.44
2023-02-18T13:27:42.669Z,98555.19
2023-02-18T13:30:38.058Z,98554.41
2023-02-18T13:33:36.147Z,98548.00
2023-02-18T13:36:17.252Z,98540.25
2023-02-18T13:38:56.760Z,98539.22
2023-02-18T13:41:27.211Z,98543.72
2023-02-18T13:43:56.377Z,98535.13
2023-02-18T13:46:25.478Z,98535.88
2023-02-18T13:49:07.843Z,98538.81
2023-02-18T13:51:53.626Z,98541.72
2023-02-18T13:54:47.578Z,98531.81
2023-02-18T13:57:21.582Z,98526.97
2023-02-18T13:59:58.354Z,98542.44
2023-02-18T14:02:28.474Z,98539.44
2023-02-18T14:04:59.182Z,98533.78
2023-02-18T14:07:39.916Z,98529.81
2023-02-18T14:10:27.185Z,98532.88
2023-02-18T14:13:20.253Z,98536.84
2023-02-18T14:15:55.060Z,98532.88
2023-02-18T14:18:32.209Z,98536.78
2023-02-18T14:21:23.411Z,98530.59
2023-02-18T14:24:09.358Z,98527.94
2023-02-18T14:26:45.126Z,98531.97
2023-02-18T14:29:23.850Z,98522.34
2023-02-18T14:31:57.214Z,98518.91
2023-02-18T14:34:26.335Z,98521.28
2023-02-18T14:37:09.979Z,98503.91
2023-02-18T14:40:02.482Z,98522.41
2023-02-18T14:43:00.791Z,98512.16
2023-02-18T14:46:03.993Z,98515.66
2023-02-18T14:48:54.410Z,98516.50
2023-02-18T14:51:27.378Z,98493.88
2023-02-18T14:53:56.674Z,98501.50
2023-02-18T14:56:26.459Z,98489.00
2023-02-18T14:59:01.136Z,98494.47
2023-02-18T15:01:32.816Z,98495.91
2023-02-18T15:04:03.311Z,98494.31
2023-02-18T15:06:35.531Z,98488.44
2023-02-18T15:09:16.548Z,98497.53
2023-02-18T15:11:51.178Z,98507.41
2023-02-18T15:14:24.796Z,98504.13
2023-02-18T15:16:54.352Z,98500.44
2023-02-18T15:19:26.788Z,98511.41
2023-02-18T15:21:59.424Z,98510.56
2023-02-18T15:24:35.942Z,98511.09
2023-02-18T15:27:13.205Z,98514.34
2023-02-18T15:29:42.879Z,98504.03
2023-02-18T15:32:28.525Z,98507.41
2023-02-18T15:35:03.705Z,98511.06
2023-02-18T15:37:35.634Z,98516.28
2023-02-18T15:40:05.469Z,98505.75
2023-02-18T15:42:37.176Z,98514.22
2023-02-18T15:45:15.698Z,98505.25
2023-02-18T15:47:46.685Z,98508.47
2023-02-18T15:50:22.054Z,98498.00
2023-02-18T15:52:51.684Z,98505.41
2023-02-18T15:55:35.144Z,98507.75
2023-02-18T15:58:08.434Z,98508.44
2023-02-18T16:00:42.791Z,98509.50
2023-02-18T16:03:21.386Z,98522.16
2023-02-18T16:05:50.009Z,98512.53
2023-02-18T16:08:27.990Z,98516.69
2023-02-18T16:11:04.957Z,98523.56
2023-02-18T16:13:35.358Z,98515.59
2023-02-18T16:16:04.196Z,98524.22
2023-02-18T16:18:42.492Z,98535.88
2023-02-18T16:21:34.007Z,98535.88
2023-02-18T16:24:05.159Z,98544.56
2023-02-18T16:26:44.224Z,98539.69
2023-02-18T16:29:16.740Z,98548.16
2023-02-18T16:31:45.329Z,98550.75
2023-02-18T16:34:14.819Z,98555.75
2023-02-18T16:37:02.984Z,98543.16
2023-02-18T16:39:36.462Z,98556.16
2023-02-18T16:42:10.557Z,98562.38
2023-02-18T16:44:39.532Z,98563.47
2023-02-18T16:47:10.435Z,98565.28
2023-02-18T16:49:40.727Z,98577.53
2023-02-18T16:52:11.378Z,98582.53
2023-02-18T16:54:39.480Z,98578.16
2023-02-18T16:57:07.758Z,98578.66
2023-02-18T16:59:35.463Z,98585.84
2023-02-18T17:02:04.117Z,98594.81
2023-02-18T17:04:32.481Z,98598.34
2023-02-18T17:07:00.797Z,98613.69
2023-02-18T17:09:29.179Z,98618.53
2023-02-18T17:11:58.204Z,98622.97
2023-02-18T17:14:27.101Z,98614.47
2023-02-18T17:16:56.320Z,98622.47
2023-02-18T17:19:24.241Z,98622.63
2023-02-18T17:21:52.641Z,98623.44
2023-02-18T17:24:20.160Z,98627.41
2023-02-18T17:26:48.246Z,98628.19
2023-02-18T17:29:18.894Z,98630.41
2023-02-18T17:31:50.608Z,98635.19
2023-02-18T17:34:27.955Z,98646.88
2023-02-18T17:36:57.823Z,98645.59
2023-02-18T17:39:26.856Z,98640.50
2023-02-18T17:41:55.998Z,98642.94
2023-02-18T17:44:28.828Z,98651.84
2023-02-18T17:46:58.109Z,98646.38
2023-02-18T17:49:27.302Z,98642.03
2023-02-18T17:51:57.275Z,98653.72
2023-02-18T17:54:28.297Z,98655.00
2023-02-18T17:56:57.367Z,98659.88
2023-02-18T17:59:25.629Z,98658.84
2023-02-18T18:01:55.064Z,98655.53
2023-02-18T18:04:24.175Z,98653.09
2023-02-18T18:06:52.248Z,98655.28
2023-02-18T18:09:20.438Z,98658.09
2023-02-18T18:11:48.124Z,98667.94
2023-02-18T18:14:16.253Z,98675.78
2023-02-18T18:16:44.145Z,98669.28
2023-02-18T18:19:12.755Z,98660.72
2023-02-18T18:21:42.049Z,98663.97
2023-02-18T18:24:12.924Z,98675.84
2023-02-18T18:26:43.790Z,98664.06
2023-02-18T18:29:13.087Z,98667.44
2023-02-18T18:31:45.560Z,98670.34
2023-02-18T18:34:17.198Z,98680.66
2023-02-18T18:36:45.901Z,98680.50
2023-02-18T18:39:14.403Z,98673.25
2023-02-18T18:41:42.096Z,98694.16
2023-02-18T18:44:12.846Z,98678.91
2023-02-18T18:46:40.952Z,98696.47
2023-02-18T18:49:10.304Z,98694.97
2023-02-18T18:51:39.528Z,98694.41
2023-02-18T18:54:06.736Z,98689.09
2023-02-18T18:56:35.778Z,98682.59
2023-02-18T18:59:09.521Z,98696.13
2023-02-18T19:01:38.675Z,98691.63
2023-02-18T19:04:07.534Z,98689.66
2023-02-18T19:06:36.243Z,98691.44
2023-02-18T19:09:03.142Z,98686.22
2023-02-18T19:11:32.027Z,98684.59
2023-02-18T19:13:59.800Z,98689.31
2023-02-18T19:16:37.860Z,98685.06
2023-02-18T19:19:05.296Z,98698.25
2023-02-18T19:21:34.580Z,98695.59
2023-02-18T19:24:03.142Z,98690.28
2023-02-18T19:26:31.822Z,98698.25
2023-02-18T19:28:59.469Z,98708.66
2023-02-18T19:31:26.877Z,98702.63
2023-02-18T19:33:54.611Z,98703.69
2023-02-18T19:36:24.003Z,98706.00
2023-02-18T19:38:52.111Z,98702.31
2023-02-18T19:41:21.395Z,98701.38
2023-02-18T19:43:48.515Z,98704.97
2023-02-18T19:46:18.381Z,98704.84
2023-02-18T19:48:50.941Z,98703.22
2023-02-18T19:51:19.688Z,98702.88
2023-02-18T19:53:49.987Z,98710.31
2023-02-18T19:56:17.192Z,98713.53
2023-02-18T19:58:44.581Z,98713.66
2023-02-18T20:01:14.660Z,98716.66
2023-02-18T20:03:43.479Z,98711.94
2023-02-18T20:06:21.059Z,98706.16
2023-02-18T20:08:49.901Z,98709.59
2023-02-18T20:11:18.618Z,98716.66
2023-02-18T20:13:49.493Z,98718.84
2023-02-18T20:16:18.364Z,98714.00
2023-02-18T20:18:47.130Z,98712.63
2023-02-18T20:21:16.125Z,98703.25
2023-02-18T20:23:44.979Z,98709.47
2023-02-18T20:26:15.630Z,98717.38
2023-02-18T20:28:43.755Z,98708.22
2023-02-18T20:31:13.814Z,98713.44
2023-02-18T20:33:43.430Z,98719.56
2023-02-18T20:36:13.767Z,98719.56
2023-02-18T20:38:41.455Z,98711.72
2023-02-18T20:41:11.955Z,98730.44
2023-02-18T20:43:40.364Z,98720.94
2023-02-18T20:46:11.924Z,98717.13
2023-02-18T20:48:40.016Z,98731.94
2023-02-18T20:51:11.190Z,98726.16
2023-02-18T20:53:40.662Z,98731.34
2023-02-18T20:56:09.306Z,98731.13
2023-02-18T20:58:37.841Z,98736.00
2023-02-18T21:01:10.088Z,98735.16
2023-02-18T21:03:40.842Z,98733.66
2023-02-18T21:06:14.257Z,98735.88
2023-02-18T21:08:45.778Z,98729.00
2023-02-18T21:11:18.183Z,98738.97
2023-02-18T21:13:49.117Z,98732.03
2023-02-18T21:16:20.546Z,98729.56
2023-02-18T21:18:49.191Z,98732.47
2023-02-18T21:21:20.672Z,98727.16
2023-02-18T21:23:49.472Z,98734.19
2023-02-18T21:26:22.082Z,98738.47
2023-02-18T21:28:53.103Z,98734.66
2023-02-18T21:31:25.326Z,98732.34
2023-02-18T21:33:53.712Z,98733.16
2023-02-18T21:36:23.631Z,98732.22
2023-02-18T21:38:54.984Z,98727.47
2023-02-18T21:41:24.504Z,98729.34
2023-02-18T21:43:52.856Z,98729.09
2023-02-18T21:46:23.450Z,98730.13
2023-02-18T21:49:09.113Z,98730.84
2023-02-18T21:51:56.701Z,98718.00
2023-02-18T21:54:31.170Z,98717.53
2023-02-18T21:57:01.761Z,98721.13
2023-02-18T21:59:31.407Z,98719.63
2023-02-18T22:02:01.084Z,98727.56
2023-02-18T22:04:31.576Z,98731.94
2023-02-18T22:07:00.229Z,98727.56
2023-02-18T22:09:28.690Z,98730.56
2023-02-18T22:11:56.178Z,98732.84
2023-02-18T22:14:24.801Z,98734.44
2023-02-18T22:16:54.282Z,98728.56
2023-02-18T22:19:22.337Z,98725.75
2023-02-18T22:21:51.006Z,98727.75
2023-02-18T22:24:20.437Z,98730.06
2023-02-18T22:26:51.220Z,98730.50
2023-02-18T22:29:21.767Z,98725.44
2023-02-18T22:31:53.714Z,98724.13
2023-02-18T22:34:22.472Z,98729.06
2023-02-18T22:36:51.565Z,98729.31
2023-02-18T22:39:18.556Z,98726.75
2023-02-18T22:41:46.760Z,98725.13
2023-02-18T22:44:16.130Z,98736.09
2023-02-18T22:46:45.034Z,98721.94
2023-02-18T22:49:13.819Z,98727.97
2023-02-18T22:51:44.437Z,98715.47
2023-02-18T22:54:15.963Z,98722.03
2023-02-18T22:56:45.918Z,98716.50
2023-02-18T22:59:16.905Z,98723.88
2023-02-18T23:01:50.926Z,98724.88
2023-02-18T23:04:20.060Z,98721.66
2023-02-18T23:06:49.415Z,98727.13
2023-02-18T23:09:21.193Z,98722.47
2023-02-18T23:11:52.777Z,98735.38
2023-02-18T23:14:22.204Z,98732.94
2023-02-18T23:17:09.797Z,98726.84
2023-02-18T23:19:37.392Z,98735.47
2023-02-18T23:22:06.890Z,98723.91
2023-02-18T23:24:37.570Z,98731.63
2023-02-18T23:27:05.782Z,98730.69
2023-02-18T23:29:32.815Z,98723.38
2023-02-18T23:32:00.905Z,98722.81
2023-02-18T23:34:30.862Z,98729.91
2023-02-18T23:36:58.573Z,98727.44
2023-02-18T23:39:27.388Z,98736.53
2023-02-18T23:41:56.069Z,98731.16
2023-02-18T23:44:25.378Z,98729.22
2023-02-18T23:46:54.514Z,98729.22
2023-02-18T23:49:25.643Z,98734.69
2023-02-18T23:51:54.874Z,98743.81
2023-02-18T23:54:23.563Z,98740.78
2023-02-18T23:56:51.265Z,98730.72
2023-02-18T23:59:20.819Z,98737.19
